Terminal Aerodrome Forecast
Issued by NWS Twin Cities, MN

Home | Current Version | Previous Version | Graphics & Text | Print | Product List | Glossary On
Versions: 1 2 3 4 5 6 7 8 9 10 11 12 13 14 15 16 17 18
000
FTUS43 KMPX 222100 AAA
TAFEAU
TAF AMD
KEAU 222137Z 2222/2318 10009KT P6SM BKN015 OVC030
      TEMPO 2222/2224 4SM -RA BR OVC012
     FM230000 09010KT 4SM -RASN BR OVC012
     FM230200 09011KT 3SM -SN BR OVC008
     FM230800 07011KT 1 1/2SM -SN BR OVC006
     FM231200 05012KT 1/2SM SN VV004=

USA.gov is the U.S. government's official web portal to all federal, state and local government web resources and services.